Time;durP1;ratioP1;P1;durP2;ratioP2;P2;SDS_P1;SDS_P2;PMS_P1;PMS_P2;Temp;Humidity;BMP_temperature;BMP_pressure;BME280_temperature;BME280_humidity;BME280_pressure;Samples;Min_cycle;Max_cycle;Signal;HPM_P1;HPM_P2
2021/06/26 00:01:11;;;;;;;6.25;5.13;;;21.90;74.20;;;;;;4931877;29;20185;-79
2021/06/26 00:03:37;;;;;;;5.70;5.05;;;21.80;74.10;;;;;;4948138;29;20174;-79
2021/06/26 00:06:06;;;;;;;6.28;5.68;;;21.90;74.20;;;;;;4947178;29;20174;-79
2021/06/26 00:08:32;;;;;;;5.82;5.22;;;21.90;74.20;;;;;;4947721;29;20162;-79
2021/06/26 00:10:59;;;;;;;5.57;4.97;;;21.80;74.10;;;;;;4947347;29;20213;-79
2021/06/26 00:13:24;;;;;;;6.22;5.57;;;21.80;74.10;;;;;;4931886;29;20201;-79
2021/06/26 00:15:52;;;;;;;5.47;4.95;;;21.80;74.10;;;;;;4932150;29;20166;-79
2021/06/26 00:18:17;;;;;;;5.95;5.35;;;21.80;74.20;;;;;;4947656;29;20162;-80
2021/06/26 00:20:45;;;;;;;5.72;5.13;;;21.80;74.20;;;;;;4947994;29;20191;-79
2021/06/26 00:23:11;;;;;;;5.88;5.28;;;21.80;74.20;;;;;;4947301;29;20242;-79
2021/06/26 00:25:37;;;;;;;6.05;5.43;;;21.80;74.20;;;;;;4931995;29;20170;-79
2021/06/26 00:28:03;;;;;;;5.68;5.07;;;21.80;74.20;;;;;;4947669;29;20158;-80
2021/06/26 00:30:33;;;;;;;5.25;4.75;;;21.90;74.30;;;;;;4948210;29;20194;-79
2021/06/26 00:33:02;;;;;;;5.88;5.28;;;21.80;74.20;;;;;;4915607;29;20193;-79
2021/06/26 00:35:30;;;;;;;5.75;5.15;;;21.80;74.20;;;;;;4915000;29;20182;-79
2021/06/26 00:37:59;;;;;;;5.97;5.38;;;21.80;74.20;;;;;;4915108;29;20186;-79
2021/06/26 00:40:27;;;;;;;6.15;5.55;;;21.80;74.20;;;;;;4919154;29;20190;-79
2021/06/26 00:42:54;;;;;;;5.85;5.28;;;21.80;74.20;;;;;;4935432;29;20190;-79
2021/06/26 00:45:22;;;;;;;6.00;5.40;;;21.80;74.20;;;;;;4919207;29;20181;-79
2021/06/26 00:47:50;;;;;;;6.10;5.50;;;21.80;74.10;;;;;;4934442;29;20194;-79
2021/06/26 00:50:20;;;;;;;5.70;5.10;;;21.80;74.10;;;;;;4918561;29;20273;-79
2021/06/26 00:52:47;;;;;;;6.28;5.55;;;21.80;74.10;;;;;;4935348;29;20589;-79
2021/06/26 00:55:14;;;;;;;5.85;5.25;;;21.80;74.20;;;;;;4918973;29;20186;-79
2021/06/26 00:57:47;;;;;;;5.80;5.20;;;21.90;74.30;;;;;;4918738;29;20188;-79
2021/06/26 01:00:14;;;;;;;6.28;5.68;;;21.80;74.30;;;;;;4950842;29;20158;-80
2021/06/26 01:02:40;;;;;;;5.95;5.35;;;21.80;74.30;;;;;;4951930;29;20154;-79
2021/06/26 01:05:08;;;;;;;5.70;5.20;;;21.80;74.30;;;;;;4951172;29;20182;-79
2021/06/26 01:07:36;;;;;;;6.20;5.57;;;21.80;74.30;;;;;;4950863;29;20200;-80
2021/06/26 01:10:03;;;;;;;6.45;5.80;;;21.80;74.30;;;;;;4951658;29;20277;-79
2021/06/26 01:12:33;;;;;;;5.90;5.30;;;21.90;74.30;;;;;;4934538;29;20169;-79
2021/06/26 01:15:03;;;;;;;5.72;5.13;;;21.80;74.30;;;;;;4933209;29;20221;-79
2021/06/26 01:17:32;;;;;;;6.68;5.97;;;21.80;74.20;;;;;;4902434;29;20206;-79
2021/06/26 01:20:03;;;;;;;5.75;5.15;;;21.80;74.10;;;;;;4918727;29;20245;-79
2021/06/26 01:22:36;;;;;;;5.70;5.20;;;21.80;74.20;;;;;;4933870;29;20213;-79
2021/06/26 01:25:03;;;;;;;6.20;5.60;;;21.80;74.10;;;;;;4918241;29;20182;-79
2021/06/26 01:27:31;;;;;;;6.57;5.88;;;21.80;74.20;;;;;;4934937;29;20217;-79
2021/06/26 01:29:59;;;;;;;5.95;5.28;;;21.80;74.10;;;;;;4933805;29;20297;-79
2021/06/26 01:32:29;;;;;;;6.35;5.53;;;21.80;74.10;;;;;;4933529;29;20241;-79
2021/06/26 01:35:09;;;;;;;6.05;5.40;;;21.80;74.20;;;;;;4917843;29;20192;-79
2021/06/26 01:37:41;;;;;;;5.68;5.07;;;21.80;74.30;;;;;;4918007;29;20185;-79
2021/06/26 01:40:09;;;;;;;5.82;5.18;;;21.80;74.10;;;;;;4902078;29;20247;-80
2021/06/26 01:42:39;;;;;;;5.85;5.35;;;21.80;74.20;;;;;;4901962;29;20589;-80
2021/06/26 01:45:10;;;;;;;6.15;5.55;;;21.80;74.20;;;;;;4902661;29;20530;-79
2021/06/26 01:47:44;;;;;;;6.13;5.53;;;21.80;74.20;;;;;;4918163;29;20186;-79
2021/06/26 01:50:15;;;;;;;5.90;5.28;;;21.80;74.20;;;;;;4933093;29;20218;-79
2021/06/26 01:52:47;;;;;;;6.03;5.43;;;21.80;74.20;;;;;;4933419;29;20249;-79
2021/06/26 01:55:16;;;;;;;5.75;5.15;;;21.80;74.30;;;;;;4917736;29;20181;-80
2021/06/26 01:57:47;;;;;;;5.50;5.00;;;21.80;74.20;;;;;;4917752;29;20182;-79
2021/06/26 02:00:13;;;;;;;5.75;5.15;;;21.80;74.30;;;;;;4918428;29;20189;-79
2021/06/26 02:02:40;;;;;;;5.60;5.10;;;21.80;74.30;;;;;;4934351;29;20577;-79
2021/06/26 02:05:12;;;;;;;6.13;5.53;;;21.80;74.30;;;;;;4917257;29;20213;-79
2021/06/26 02:07:43;;;;;;;6.05;5.45;;;21.80;74.20;;;;;;4933141;29;20194;-79
2021/06/26 02:10:15;;;;;;;6.13;5.53;;;21.80;74.20;;;;;;4933370;29;20245;-79
2021/06/26 02:12:42;;;;;;;6.05;5.45;;;21.80;74.20;;;;;;4916003;29;20217;-79
2021/06/26 02:15:13;;;;;;;6.57;5.88;;;21.90;74.20;;;;;;4917898;29;20193;-79
2021/06/26 02:17:45;;;;;;;5.90;5.30;;;21.80;74.10;;;;;;4917006;29;20269;-80
2021/06/26 02:20:12;;;;;;;6.40;5.47;;;21.80;74.20;;;;;;4917307;29;20560;-79
2021/06/26 02:22:41;;;;;;;5.82;5.22;;;21.80;74.20;;;;;;4950451;29;20173;-79
2021/06/26 02:25:09;;;;;;;5.82;5.15;;;21.70;74.10;;;;;;4966028;29;20205;-79
2021/06/26 02:27:36;;;;;;;5.70;5.15;;;21.80;74.20;;;;;;4948748;29;20646;-79
2021/06/26 02:30:03;;;;;;;6.05;5.45;;;21.80;74.30;;;;;;4948302;29;20236;-79
2021/06/26 02:32:32;;;;;;;5.68;5.13;;;21.80;74.30;;;;;;4949347;29;20161;-79
2021/06/26 02:35:03;;;;;;;6.22;5.40;;;21.80;75.00;;;;;;4917045;29;20182;-79
2021/06/26 02:37:32;;;;;;;6.35;5.75;;;21.80;74.30;;;;;;4916757;29;20240;-79
2021/06/26 02:40:03;;;;;;;6.47;5.60;;;21.80;74.20;;;;;;4933152;29;20190;-79
2021/06/26 02:42:31;;;;;;;6.00;5.40;;;21.80;74.30;;;;;;4933174;29;20201;-79
2021/06/26 02:44:58;;;;;;;6.20;5.60;;;21.80;74.30;;;;;;4933065;29;20194;-80
2021/06/26 02:47:24;;;;;;;6.30;5.55;;;21.80;74.20;;;;;;4933469;29;20181;-80
2021/06/26 02:49:51;;;;;;;6.10;5.50;;;21.80;74.20;;;;;;4949109;29;20194;-79
2021/06/26 02:52:17;;;;;;;6.22;5.63;;;21.80;74.20;;;;;;4932988;29;20166;-79
2021/06/26 02:54:43;;;;;;;5.93;5.13;;;21.80;74.30;;;;;;4948270;29;20169;-80
2021/06/26 02:57:10;;;;;;;6.20;5.60;;;21.80;74.30;;;;;;4949305;29;20213;-79
2021/06/26 02:59:36;;;;;;;5.93;5.32;;;21.80;74.30;;;;;;4932529;29;20170;-79
2021/06/26 03:02:01;;;;;;;5.80;5.20;;;21.80;74.30;;;;;;4931777;29;20194;-79
2021/06/26 03:04:27;;;;;;;6.20;5.60;;;21.80;74.30;;;;;;4949482;29;20190;-79
2021/06/26 03:06:56;;;;;;;6.65;5.70;;;21.80;74.30;;;;;;4948880;29;20162;-79
2021/06/26 03:09:24;;;;;;;5.95;5.35;;;21.80;74.30;;;;;;4931730;29;20190;-79
2021/06/26 03:11:55;;;;;;;6.15;5.55;;;21.80;74.30;;;;;;4916563;29;20204;-79
2021/06/26 03:14:23;;;;;;;5.75;5.15;;;21.80;74.30;;;;;;4931289;29;20207;-79
2021/06/26 03:16:52;;;;;;;6.13;5.47;;;21.80;74.30;;;;;;4916050;29;20190;-80
2021/06/26 03:19:20;;;;;;;5.57;4.90;;;21.80;74.30;;;;;;4916495;29;20186;-79
2021/06/26 03:21:45;;;;;;;6.68;5.97;;;21.80;74.30;;;;;;4931969;29;20186;-79
2021/06/26 03:24:11;;;;;;;5.97;5.38;;;21.80;74.30;;;;;;4932347;29;20173;-79
2021/06/26 03:26:37;;;;;;;5.85;5.25;;;21.80;74.30;;;;;;4949159;29;20163;-79
2021/06/26 03:29:03;;;;;;;6.28;5.68;;;21.80;74.30;;;;;;4948269;29;20233;-79
2021/06/26 03:31:34;;;;;;;5.90;5.30;;;21.70;74.20;;;;;;4948252;29;20265;-80
2021/06/26 03:34:00;;;;;;;6.28;5.68;;;21.80;74.30;;;;;;4948589;29;20186;-79
2021/06/26 03:36:26;;;;;;;6.13;5.45;;;21.80;74.30;;;;;;4947902;29;20158;-79
2021/06/26 03:38:52;;;;;;;5.72;5.13;;;21.70;74.10;;;;;;4948571;29;20203;-79
2021/06/26 03:41:26;;;;;;;6.40;5.70;;;21.80;74.20;;;;;;4947939;29;20166;-79
2021/06/26 03:43:58;;;;;;;5.90;5.30;;;21.80;74.10;;;;;;4915560;29;20186;-79
2021/06/26 03:46:26;;;;;;;5.70;4.93;;;21.70;74.10;;;;;;4947961;29;20189;-79
2021/06/26 03:48:57;;;;;;;6.07;5.47;;;21.80;74.20;;;;;;4931430;29;20194;-79
2021/06/26 03:51:24;;;;;;;5.78;5.18;;;21.80;74.20;;;;;;4947874;29;20205;-80
2021/06/26 03:53:53;;;;;;;5.80;5.25;;;21.80;74.20;;;;;;4947857;29;20186;-79
2021/06/26 03:56:21;;;;;;;5.90;5.30;;;21.70;74.10;;;;;;4947853;29;20624;-80
2021/06/26 03:58:48;;;;;;;6.53;5.80;;;21.70;74.10;;;;;;4947748;29;20155;-79
2021/06/26 04:01:14;;;;;;;6.22;5.32;;;21.80;74.10;;;;;;4948431;29;20166;-80
2021/06/26 04:03:48;;;;;;;6.28;5.38;;;21.80;74.10;;;;;;4947766;29;20162;-80
2021/06/26 04:06:14;;;;;;;6.25;5.65;;;21.80;74.10;;;;;;4948112;29;20209;-79
2021/06/26 04:08:42;;;;;;;5.93;5.32;;;21.80;74.10;;;;;;4947899;29;20169;-79
2021/06/26 04:11:11;;;;;;;5.85;5.25;;;21.80;74.10;;;;;;4947567;29;20212;-79
2021/06/26 04:13:43;;;;;;;6.07;5.47;;;21.80;74.10;;;;;;4902089;29;20281;-80
2021/06/26 04:16:12;;;;;;;6.20;5.60;;;21.80;74.10;;;;;;4920399;29;20232;-79
2021/06/26 04:18:40;;;;;;;6.20;5.60;;;21.80;74.20;;;;;;4919578;29;20194;-80
2021/06/26 04:21:07;;;;;;;6.90;5.47;;;21.80;74.20;;;;;;4934490;29;20186;-80
2021/06/26 04:23:35;;;;;;;6.35;5.72;;;21.70;74.10;;;;;;4952141;29;20180;-79
2021/06/26 04:26:04;;;;;;;5.53;5.03;;;21.80;74.10;;;;;;4919270;29;20217;-79
2021/06/26 04:28:29;;;;;;;6.28;5.60;;;21.80;74.10;;;;;;4918883;29;20220;-79
2021/06/26 04:30:57;;;;;;;5.88;5.28;;;21.80;74.10;;;;;;4951155;29;20190;-79
2021/06/26 04:33:26;;;;;;;6.15;5.55;;;21.80;74.10;;;;;;4918916;29;20189;-79
2021/06/26 04:35:51;;;;;;;6.07;5.47;;;21.80;74.10;;;;;;4935214;29;20237;-79
2021/06/26 04:38:22;;;;;;;5.80;5.20;;;21.80;74.10;;;;;;4951650;29;20182;-79
2021/06/26 04:40:52;;;;;;;6.20;5.60;;;21.80;74.10;;;;;;4951663;29;20208;-80
2021/06/26 04:43:20;;;;;;;6.05;5.45;;;21.80;74.10;;;;;;4951213;29;20158;-79
2021/06/26 04:45:47;;;;;;;6.10;5.50;;;21.80;74.10;;;;;;4952017;29;20181;-79
2021/06/26 04:48:16;;;;;;;6.13;5.50;;;21.80;74.10;;;;;;4935645;29;20241;-79
2021/06/26 04:50:46;;;;;;;6.43;5.80;;;21.80;74.10;;;;;;4951254;29;20244;-80
2021/06/26 04:53:13;;;;;;;5.68;5.07;;;21.80;74.10;;;;;;4951242;29;20170;-79
2021/06/26 04:55:39;;;;;;;6.18;5.53;;;21.80;74.10;;;;;;4951407;29;20154;-79
2021/06/26 04:58:05;;;;;;;6.05;5.45;;;21.80;74.10;;;;;;4951399;29;20178;-80
2021/06/26 05:00:32;;;;;;;5.78;5.18;;;21.70;73.80;;;;;;4934946;29;20170;-79
2021/06/26 05:02:58;;;;;;;5.53;4.95;;;21.80;73.90;;;;;;4951128;29;20577;-79
2021/06/26 05:05:25;;;;;;;5.85;5.25;;;21.80;73.80;;;;;;4951063;29;20183;-80
2021/06/26 05:07:51;;;;;;;5.93;5.32;;;21.80;73.80;;;;;;4950986;29;20249;-79
2021/06/26 05:10:19;;;;;;;6.47;5.78;;;21.80;73.90;;;;;;4950454;29;20205;-79
2021/06/26 05:12:47;;;;;;;5.97;5.38;;;21.80;73.80;;;;;;4950899;29;20536;-79
2021/06/26 05:15:16;;;;;;;5.90;5.32;;;21.80;73.80;;;;;;4950934;29;20163;-79
2021/06/26 05:17:47;;;;;;;5.88;5.28;;;21.80;73.80;;;;;;4918170;29;20186;-80
2021/06/26 05:20:18;;;;;;;6.93;5.30;;;21.80;73.90;;;;;;4918928;29;20181;-79
2021/06/26 05:22:47;;;;;;;5.57;4.97;;;21.80;73.90;;;;;;4934340;29;20201;-80
2021/06/26 05:25:16;;;;;;;5.97;5.38;;;21.80;73.80;;;;;;4932271;29;20186;-79
2021/06/26 05:27:45;;;;;;;5.53;5.03;;;21.90;73.90;;;;;;4917546;29;20186;-79
2021/06/26 05:30:14;;;;;;;5.70;5.10;;;21.80;73.80;;;;;;4917418;29;20244;-80
2021/06/26 05:32:42;;;;;;;5.72;5.20;;;21.80;73.80;;;;;;4933800;29;20182;-79
2021/06/26 05:35:13;;;;;;;5.93;5.32;;;21.80;73.70;;;;;;4917670;29;20190;-79
2021/06/26 05:37:43;;;;;;;5.80;5.20;;;21.90;73.80;;;;;;4933983;29;20186;-79
2021/06/26 05:40:11;;;;;;;5.93;5.32;;;21.90;73.60;;;;;;4902367;29;20186;-79
2021/06/26 05:42:39;;;;;;;6.35;5.50;;;21.90;73.50;;;;;;4933181;29;20203;-79
2021/06/26 05:45:05;;;;;;;5.90;5.30;;;21.80;73.60;;;;;;4934368;29;20190;-80
2021/06/26 05:47:32;;;;;;;6.72;5.50;;;21.90;73.60;;;;;;4950775;29;20158;-80
2021/06/26 05:49:58;;;;;;;6.93;5.80;;;21.90;73.60;;;;;;4949586;29;20676;-80
2021/06/26 05:52:23;;;;;;;6.20;5.60;;;21.80;73.50;;;;;;4950629;29;20226;-79
2021/06/26 05:54:52;;;;;;;6.03;5.43;;;21.80;73.50;;;;;;4950516;29;20155;-80
2021/06/26 05:57:21;;;;;;;6.05;5.35;;;21.90;73.60;;;;;;4917902;29;20197;-79
2021/06/26 05:59:49;;;;;;;5.82;5.22;;;21.90;73.60;;;;;;4933014;29;20190;-79
2021/06/26 06:02:17;;;;;;;5.82;5.30;;;21.80;73.60;;;;;;4917792;29;20185;-79
2021/06/26 06:04:43;;;;;;;6.32;5.68;;;21.80;73.60;;;;;;4917204;29;20225;-79
2021/06/26 06:07:13;;;;;;;6.25;5.53;;;21.80;73.60;;;;;;4934274;29;20178;-79
2021/06/26 06:09:41;;;;;;;5.80;5.20;;;21.80;73.70;;;;;;4916951;29;20598;-80
2021/06/26 06:12:09;;;;;;;5.80;5.22;;;21.70;73.60;;;;;;4932929;29;20208;-79
2021/06/26 06:14:41;;;;;;;5.47;4.97;;;21.80;73.60;;;;;;4933914;29;20182;-80
2021/06/26 06:17:08;;;;;;;6.28;5.63;;;21.80;73.60;;;;;;4916882;29;20186;-80
2021/06/26 06:19:36;;;;;;;5.85;5.25;;;21.90;73.60;;;;;;4917325;29;20182;-79
2021/06/26 06:22:08;;;;;;;5.60;5.10;;;21.90;73.50;;;;;;4917759;29;20201;-79
2021/06/26 06:24:38;;;;;;;6.65;5.93;;;21.90;73.50;;;;;;4918476;29;20245;-80
2021/06/26 06:27:06;;;;;;;5.90;5.30;;;21.80;73.50;;;;;;4917718;29;20270;-80
2021/06/26 06:29:33;;;;;;;5.75;5.18;;;21.80;73.50;;;;;;4917175;29;20236;-80
2021/06/26 06:32:00;;;;;;;6.00;5.40;;;21.90;73.50;;;;;;4933002;29;20186;-79
2021/06/26 06:34:28;;;;;;;5.63;5.13;;;21.90;73.40;;;;;;4901827;29;20236;-80
2021/06/26 06:36:55;;;;;;;6.18;5.57;;;21.90;73.50;;;;;;4932502;29;20555;-80
2021/06/26 06:39:24;;;;;;;6.07;5.47;;;21.90;73.50;;;;;;4932130;29;20193;-79
2021/06/26 06:41:51;;;;;;;6.00;5.40;;;21.80;73.50;;;;;;4932342;29;20709;-79
2021/06/26 06:44:17;;;;;;;5.85;5.15;;;21.90;73.60;;;;;;4917460;29;20213;-80
2021/06/26 06:46:47;;;;;;;5.72;5.13;;;21.80;73.50;;;;;;4948807;29;20166;-79
2021/06/26 06:49:12;;;;;;;6.10;5.50;;;21.80;73.60;;;;;;4916995;29;20197;-79
2021/06/26 06:51:42;;;;;;;5.55;5.05;;;21.80;73.60;;;;;;4948338;29;20205;-79
2021/06/26 06:54:09;;;;;;;5.85;5.25;;;21.90;73.70;;;;;;4932633;29;20201;-79
2021/06/26 06:56:34;;;;;;;6.15;5.20;;;21.80;73.60;;;;;;4949701;29;20158;-79
2021/06/26 06:59:01;;;;;;;6.22;5.63;;;21.80;73.60;;;;;;4948901;29;20170;-79
2021/06/26 07:01:28;;;;;;;6.28;5.60;;;21.80;73.60;;;;;;4948251;29;20245;-79
2021/06/26 07:03:53;;;;;;;5.95;5.35;;;21.80;73.60;;;;;;4932840;29;20185;-79
2021/06/26 07:06:19;;;;;;;6.00;5.40;;;21.80;73.60;;;;;;4948886;29;20530;-79
2021/06/26 07:08:47;;;;;;;6.25;5.20;;;21.80;73.60;;;;;;4932410;29;20173;-79
2021/06/26 07:11:16;;;;;;;5.95;5.35;;;21.90;73.50;;;;;;4948675;29;20250;-79
2021/06/26 07:13:44;;;;;;;6.38;5.75;;;21.90;73.50;;;;;;4900647;29;20249;-80
2021/06/26 07:16:14;;;;;;;5.82;5.22;;;21.90;73.60;;;;;;4916227;29;20212;-80
2021/06/26 07:18:43;;;;;;;5.82;5.22;;;21.80;73.60;;;;;;4931416;29;20186;-79
2021/06/26 07:21:11;;;;;;;5.90;5.30;;;21.80;73.50;;;;;;4932061;29;20186;-80
2021/06/26 07:23:39;;;;;;;5.50;5.00;;;21.90;73.50;;;;;;4916230;29;20265;-79
2021/06/26 07:26:11;;;;;;;6.07;5.47;;;21.80;73.50;;;;;;4915774;29;20186;-80
2021/06/26 07:28:37;;;;;;;5.75;5.00;;;21.80;73.60;;;;;;4915676;29;20306;-79
2021/06/26 07:31:09;;;;;;;6.55;5.60;;;21.80;73.60;;;;;;4932772;29;20201;-79
2021/06/26 07:33:34;;;;;;;5.72;5.22;;;21.90;73.50;;;;;;4915972;29;20657;-79
2021/06/26 07:36:00;;;;;;;5.43;4.93;;;21.80;73.40;;;;;;4963949;29;20208;-79
2021/06/26 07:38:27;;;;;;;6.43;5.75;;;21.80;73.40;;;;;;4948225;29;20178;-79
2021/06/26 07:40:52;;;;;;;5.78;5.18;;;21.80;73.50;;;;;;4948106;29;20189;-79
2021/06/26 07:43:19;;;;;;;6.07;5.47;;;21.90;73.50;;;;;;4948170;29;20265;-80
2021/06/26 07:45:45;;;;;;;6.13;5.53;;;21.90;73.50;;;;;;4948071;29;20229;-79
2021/06/26 07:48:11;;;;;;;5.88;5.28;;;21.90;73.50;;;;;;4947226;29;20170;-80
2021/06/26 07:50:38;;;;;;;5.90;5.30;;;21.90;73.40;;;;;;4948181;29;20193;-79
2021/06/26 07:53:04;;;;;;;6.03;5.40;;;21.90;73.40;;;;;;4948122;29;20161;-79
2021/06/26 07:55:33;;;;;;;5.80;5.20;;;21.90;73.40;;;;;;4948132;29;20232;-80
2021/06/26 07:57:59;;;;;;;6.22;5.63;;;21.90;73.40;;;;;;4948420;29;20166;-79
2021/06/26 08:00:26;;;;;;;5.90;5.30;;;21.80;73.50;;;;;;4948087;29;20206;-80
2021/06/26 08:02:53;;;;;;;5.40;4.90;;;21.80;73.50;;;;;;4932531;29;20539;-79
2021/06/26 08:05:21;;;;;;;5.93;5.32;;;21.90;73.60;;;;;;4932084;29;20178;-79
2021/06/26 08:07:47;;;;;;;5.57;4.97;;;21.80;73.50;;;;;;4947891;29;20158;-80
2021/06/26 08:10:13;;;;;;;6.00;5.22;;;21.90;73.60;;;;;;4948020;29;20562;-80
2021/06/26 08:12:42;;;;;;;5.95;5.35;;;21.80;73.60;;;;;;4947839;29;20158;-81
2021/06/26 08:15:13;;;;;;;5.47;4.95;;;21.80;73.50;;;;;;4947683;29;20181;-81
2021/06/26 08:17:42;;;;;;;6.30;5.68;;;21.80;73.60;;;;;;4915495;29;20206;-81
2021/06/26 08:20:11;;;;;;;6.53;5.82;;;21.80;73.50;;;;;;4915697;29;20230;-81
2021/06/26 08:22:40;;;;;;;5.95;5.35;;;21.80;73.40;;;;;;4914988;29;20192;-81
2021/06/26 08:25:09;;;;;;;5.95;5.35;;;21.90;73.30;;;;;;4900611;29;20253;-80
2021/06/26 08:27:37;;;;;;;6.35;5.63;;;21.90;73.20;;;;;;4916694;29;20210;-80
2021/06/26 08:30:05;;;;;;;5.85;5.25;;;21.90;73.20;;;;;;4914751;29;20229;-81
2021/06/26 08:32:32;;;;;;;5.95;5.35;;;21.90;73.10;;;;;;4915034;29;20657;-80
2021/06/26 08:34:58;;;;;;;5.82;5.22;;;21.90;73.10;;;;;;4932126;29;20242;-80
2021/06/26 08:37:27;;;;;;;5.30;4.80;;;21.90;73.10;;;;;;4948099;29;20178;-80
2021/06/26 08:39:56;;;;;;;6.00;5.40;;;21.90;73.20;;;;;;4947849;29;20173;-80
2021/06/26 08:42:25;;;;;;;6.35;5.40;;;21.90;73.10;;;;;;4915668;29;20193;-80
2021/06/26 08:44:57;;;;;;;5.80;5.22;;;21.90;73.00;;;;;;4915269;29;20182;-80
2021/06/26 08:47:26;;;;;;;5.97;5.38;;;21.80;72.90;;;;;;4931373;29;20175;-80
2021/06/26 08:49:53;;;;;;;5.78;5.18;;;21.90;73.00;;;;;;4930535;29;20271;-80
2021/06/26 08:52:22;;;;;;;6.10;5.50;;;21.80;73.00;;;;;;4931379;29;20217;-80
2021/06/26 08:54:53;;;;;;;6.13;5.50;;;21.90;73.00;;;;;;4914967;29;20703;-80
2021/06/26 08:57:32;;;;;;;5.45;4.95;;;21.90;73.90;;;;;;4930795;29;20209;-80
2021/06/26 08:59:58;;;;;;;6.10;5.50;;;21.90;72.90;;;;;;4916534;29;20185;-80
2021/06/26 09:02:25;;;;;;;6.05;5.45;;;22.00;73.00;;;;;;4950928;29;20214;-80
2021/06/26 09:04:52;;;;;;;5.72;5.13;;;22.00;73.00;;;;;;4951157;29;20214;-80
2021/06/26 09:07:28;;;;;;;5.93;5.32;;;21.90;73.00;;;;;;4935154;29;20544;-80
2021/06/26 09:09:56;;;;;;;6.30;5.70;;;21.90;73.00;;;;;;4950897;29;20186;-80
2021/06/26 09:12:22;;;;;;;6.50;5.80;;;22.00;73.50;;;;;;4951096;29;20162;-80
2021/06/26 09:14:48;;;;;;;6.03;5.43;;;21.90;73.00;;;;;;4950637;29;20158;-80
2021/06/26 09:17:17;;;;;;;5.75;5.15;;;21.90;73.00;;;;;;4951012;29;20174;-80
2021/06/26 09:20:02;;;;;;;6.07;5.20;;;21.90;73.00;;;;;;4950689;29;20153;-80
2021/06/26 09:22:42;;;;;;;5.95;5.35;;;21.90;72.90;;;;;;4935539;29;20178;-80
2021/06/26 09:25:35;;;;;;;5.95;5.25;;;22.00;72.90;;;;;;4918658;29;20182;-80
2021/06/26 09:28:08;;;;;;;6.25;5.55;;;22.00;72.90;;;;;;4934123;29;20189;-80
2021/06/26 09:30:42;;;;;;;6.03;5.43;;;22.00;72.90;;;;;;4918280;29;20686;-80
2021/06/26 09:33:17;;;;;;;5.80;5.30;;;21.90;72.90;;;;;;4933706;29;20178;-80
2021/06/26 09:35:44;;;;;;;5.68;5.18;;;22.00;73.00;;;;;;4949851;29;20164;-80
2021/06/26 09:38:12;;;;;;;6.30;5.68;;;21.90;73.00;;;;;;4950403;29;20239;-80
2021/06/26 09:40:40;;;;;;;6.70;6.00;;;22.00;73.00;;;;;;4950153;29;20158;-80
2021/06/26 09:43:08;;;;;;;6.75;5.72;;;22.00;73.00;;;;;;4950335;29;20151;-81
2021/06/26 09:45:34;;;;;;;5.90;5.28;;;22.00;73.00;;;;;;4950629;29;20181;-80
2021/06/26 09:48:04;;;;;;;5.95;5.32;;;21.90;73.00;;;;;;4950191;29;20255;-80
2021/06/26 09:50:29;;;;;;;6.15;5.50;;;21.90;73.00;;;;;;4950127;29;20205;-80
2021/06/26 09:52:58;;;;;;;6.00;5.40;;;22.00;73.00;;;;;;4933798;29;20271;-80
2021/06/26 09:55:29;;;;;;;6.32;5.55;;;21.90;73.00;;;;;;4950371;29;20154;-81
2021/06/26 09:57:57;;;;;;;5.95;5.35;;;21.90;73.00;;;;;;4949684;29;20166;-80
2021/06/26 10:00:25;;;;;;;5.95;5.35;;;21.90;73.00;;;;;;4950267;29;20657;-80
2021/06/26 10:02:51;;;;;;;6.13;5.53;;;21.90;73.00;;;;;;4965624;29;20257;-80
2021/06/26 10:05:20;;;;;;;5.90;5.30;;;21.90;73.10;;;;;;4949674;29;20166;-80
2021/06/26 10:07:48;;;;;;;6.40;5.80;;;22.00;73.00;;;;;;4949391;29;20162;-80
2021/06/26 10:10:16;;;;;;;5.93;5.32;;;21.90;72.90;;;;;;4950062;29;20194;-80
2021/06/26 10:12:47;;;;;;;6.20;5.60;;;22.00;72.90;;;;;;4934031;29;20171;-80
2021/06/26 10:15:15;;;;;;;5.75;5.15;;;22.00;72.90;;;;;;4949403;29;20170;-80
2021/06/26 10:17:44;;;;;;;6.03;5.43;;;22.00;72.90;;;;;;4949795;29;20151;-80
2021/06/26 10:20:11;;;;;;;5.72;5.13;;;22.00;72.80;;;;;;4949957;29;20161;-80
2021/06/26 10:22:38;;;;;;;6.18;5.57;;;22.00;72.80;;;;;;4934539;29;20166;-80
2021/06/26 10:25:06;;;;;;;6.10;5.50;;;22.00;72.80;;;;;;4949539;29;20167;-80
2021/06/26 10:27:32;;;;;;;6.10;5.50;;;22.00;72.70;;;;;;4933553;29;20170;-80
2021/06/26 10:30:20;;;;;;;5.93;5.30;;;22.00;72.70;;;;;;4933032;29;20305;-80
2021/06/26 10:32:50;;;;;;;5.90;5.30;;;22.00;72.80;;;;;;4949675;29;20162;-80
2021/06/26 10:35:16;;;;;;;5.80;5.22;;;22.00;72.90;;;;;;4933677;29;20174;-80
2021/06/26 10:37:45;;;;;;;5.72;5.03;;;22.00;72.80;;;;;;4949487;29;20158;-80
2021/06/26 10:40:17;;;;;;;6.32;5.28;;;22.00;72.90;;;;;;4933267;29;20186;-80
2021/06/26 10:42:46;;;;;;;6.05;5.45;;;21.90;72.60;;;;;;4916175;29;20228;-80
2021/06/26 10:45:25;;;;;;;6.15;5.55;;;22.00;72.80;;;;;;4917075;29;20186;-80
2021/06/26 10:47:52;;;;;;;6.50;5.82;;;22.00;72.70;;;;;;4933447;29;20169;-80
2021/06/26 10:50:19;;;;;;;6.15;5.55;;;22.00;72.70;;;;;;4949372;29;20197;-80
2021/06/26 10:52:54;;;;;;;6.70;5.88;;;22.00;72.60;;;;;;4948358;29;20159;-80
2021/06/26 10:55:34;;;;;;;5.93;5.32;;;22.00;72.60;;;;;;4948884;29;20160;-80
2021/06/26 10:58:01;;;;;;;6.50;5.90;;;22.00;72.60;;;;;;4948924;29;20233;-80
2021/06/26 11:00:40;;;;;;;6.15;5.55;;;22.00;72.60;;;;;;4949022;29;20158;-80
2021/06/26 11:03:19;;;;;;;6.40;5.70;;;22.00;72.60;;;;;;4949130;29;20177;-80
2021/06/26 11:05:45;;;;;;;6.80;5.93;;;22.00;72.60;;;;;;4949820;29;20166;-80
2021/06/26 11:08:14;;;;;;;6.55;5.85;;;22.00;72.60;;;;;;4948464;29;20158;-80
2021/06/26 11:10:54;;;;;;;6.05;5.45;;;22.00;72.50;;;;;;4948865;29;20190;-80
2021/06/26 11:13:21;;;;;;;5.90;5.30;;;22.00;72.60;;;;;;4948268;29;20160;-81
2021/06/26 11:15:47;;;;;;;5.78;5.18;;;22.00;72.50;;;;;;4948049;29;20209;-80
2021/06/26 11:18:19;;;;;;;6.35;5.75;;;22.00;72.60;;;;;;4949050;29;20616;-80
2021/06/26 11:20:47;;;;;;;6.60;5.90;;;22.00;72.60;;;;;;4916528;29;20747;-80
2021/06/26 11:23:17;;;;;;;6.22;5.63;;;22.00;72.50;;;;;;4931043;29;20624;-80
2021/06/26 11:25:47;;;;;;;5.88;5.28;;;22.00;72.40;;;;;;4931853;29;20661;-80
2021/06/26 11:28:15;;;;;;;7.28;5.55;;;22.00;72.50;;;;;;4916258;29;20233;-80
2021/06/26 11:30:57;;;;;;;6.32;5.65;;;22.00;72.40;;;;;;4947598;29;20189;-80
2021/06/26 11:33:34;;;;;;;6.75;6.05;;;22.00;72.40;;;;;;4900523;29;20186;-80
2021/06/26 11:36:08;;;;;;;6.30;5.70;;;22.00;72.30;;;;;;4917008;29;20280;-80
2021/06/26 11:38:38;;;;;;;5.97;5.38;;;22.10;72.50;;;;;;4932233;29;20213;-80
2021/06/26 11:41:07;;;;;;;6.13;5.32;;;22.00;72.30;;;;;;4931383;29;20209;-80
2021/06/26 11:43:35;;;;;;;6.40;5.65;;;22.00;72.30;;;;;;4916248;29;20220;-81
2021/06/26 11:46:04;;;;;;;6.25;5.65;;;22.00;72.30;;;;;;4916147;29;20190;-80
2021/06/26 11:48:35;;;;;;;6.10;5.50;;;22.00;72.30;;;;;;4917178;29;20193;-80
2021/06/26 11:51:05;;;;;;;5.78;5.20;;;22.10;72.30;;;;;;4931527;29;20221;-80
2021/06/26 11:53:37;;;;;;;5.60;5.10;;;22.00;72.20;;;;;;4931538;29;20197;-80
2021/06/26 11:56:07;;;;;;;6.10;5.50;;;22.10;72.20;;;;;;4916903;29;20213;-80
2021/06/26 11:58:47;;;;;;;6.68;5.75;;;22.10;72.20;;;;;;4915432;29;20186;-81
2021/06/26 12:01:27;;;;;;;6.38;5.63;;;22.10;72.10;;;;;;4932169;29;20210;-80
2021/06/26 12:03:53;;;;;;;6.03;5.43;;;22.10;72.10;;;;;;4948346;29;20673;-80
2021/06/26 12:06:23;;;;;;;6.00;5.40;;;22.10;72.10;;;;;;4949181;29;20162;-80
2021/06/26 12:08:54;;;;;;;5.53;5.03;;;22.10;72.10;;;;;;4949366;29;20253;-80
2021/06/26 12:11:23;;;;;;;6.97;5.88;;;22.10;72.10;;;;;;4932630;29;20269;-80
2021/06/26 12:13:52;;;;;;;5.55;5.05;;;22.10;72.10;;;;;;4947511;29;20162;-80
2021/06/26 12:16:22;;;;;;;6.22;5.47;;;22.10;72.10;;;;;;4948153;29;20158;-80
2021/06/26 12:18:51;;;;;;;6.15;5.55;;;22.10;72.00;;;;;;4947407;29;20190;-80
2021/06/26 12:21:17;;;;;;;5.88;5.28;;;22.10;72.00;;;;;;4947412;29;20364;-80
2021/06/26 12:23:46;;;;;;;6.07;5.45;;;22.10;72.00;;;;;;4947940;29;20181;-80
2021/06/26 12:26:19;;;;;;;6.30;5.70;;;22.10;72.00;;;;;;4947958;29;20178;-80
2021/06/26 12:28:44;;;;;;;6.20;5.60;;;22.10;72.00;;;;;;4946901;29;20285;-80
2021/06/26 12:31:11;;;;;;;7.47;5.38;;;22.10;72.10;;;;;;4932232;29;20236;-80
2021/06/26 12:33:39;;;;;;;5.90;5.30;;;22.10;72.10;;;;;;4933241;29;20200;-80
2021/06/26 12:36:17;;;;;;;6.18;5.53;;;22.10;72.10;;;;;;4951009;29;20618;-81
2021/06/26 12:38:46;;;;;;;6.50;5.75;;;22.10;72.20;;;;;;4936035;29;20170;-80
2021/06/26 12:41:28;;;;;;;5.95;5.35;;;22.10;72.10;;;;;;4918670;29;20209;-80
2021/06/26 12:43:59;;;;;;;5.60;5.10;;;22.10;72.00;;;;;;4935108;29;20188;-80
2021/06/26 12:46:32;;;;;;;6.22;5.60;;;22.00;72.00;;;;;;4934986;29;20182;-81
2021/06/26 12:49:00;;;;;;;5.85;5.25;;;22.10;72.90;;;;;;4934772;29;20186;-81
2021/06/26 12:51:33;;;;;;;6.70;6.00;;;22.20;72.10;;;;;;4934988;29;20246;-80
2021/06/26 12:54:08;;;;;;;5.90;5.30;;;22.10;72.00;;;;;;4934060;29;20640;-80
2021/06/26 12:56:37;;;;;;;5.78;5.28;;;22.10;72.00;;;;;;4905685;29;20633;-80